Time;durP1;ratioP1;P1;durP2;ratioP2;P2;SDS_P1;SDS_P2;PMS_P1;PMS_P2;Temp;Humidity;BMP_temperature;BMP_pressure;BME280_temperature;BME280_humidity;BME280_pressure;Samples;Min_cycle;Max_cycle;Signal;HPM_P1;HPM_P2
2023/12/29 00:00:37;;;;;;;9.00;2.10;;;9.30;99.90;;;;;;4947462;29;20048;-81
2023/12/29 00:03:04;;;;;;;13.00;2.20;;;9.60;99.90;;;;;;4952677;29;20050;-81
2023/12/29 00:05:31;;;;;;;11.10;2.30;;;9.30;99.90;;;;;;4952625;29;20122;-81
2023/12/29 00:07:58;;;;;;;13.80;2.20;;;9.40;99.90;;;;;;4948525;29;20156;-81
2023/12/29 00:10:25;;;;;;;10.25;2.45;;;9.40;99.90;;;;;;4920168;29;20052;-81
2023/12/29 00:12:51;;;;;;;9.43;1.80;;;9.60;99.90;;;;;;4946223;29;20036;-81
2023/12/29 00:15:21;;;;;;;10.38;2.05;;;9.40;99.90;;;;;;4929554;29;20048;-81
2023/12/29 00:17:48;;;;;;;10.15;2.00;;;9.40;99.90;;;;;;4947069;29;20044;-81
2023/12/29 00:20:14;;;;;;;14.05;2.58;;;9.70;99.90;;;;;;4937264;29;20047;-81
2023/12/29 00:22:41;;;;;;;9.02;1.95;;;9.40;99.90;;;;;;4937009;29;20079;-81
2023/12/29 00:25:08;;;;;;;7.57;2.00;;;9.60;99.90;;;;;;4946340;29;20568;-81
2023/12/29 00:27:36;;;;;;;10.48;1.92;;;9.60;99.90;;;;;;4936752;29;20490;-82
2023/12/29 00:30:03;;;;;;;10.80;2.08;;;9.50;99.90;;;;;;4946733;29;20040;-82
2023/12/29 00:32:30;;;;;;;9.98;2.33;;;9.50;99.90;;;;;;4929297;29;20119;-81
2023/12/29 00:34:56;;;;;;;12.05;2.15;;;9.50;99.90;;;;;;4944012;29;20044;-81
2023/12/29 00:37:23;;;;;;;10.65;1.98;;;9.70;99.90;;;;;;4926074;29;20071;-82
2023/12/29 00:39:50;;;;;;;9.85;2.58;;;9.60;99.90;;;;;;4937988;29;20564;-81
2023/12/29 00:42:17;;;;;;;8.18;1.98;;;9.60;99.90;;;;;;4926161;29;20435;-81
2023/12/29 00:44:43;;;;;;;6.75;1.65;;;9.70;99.90;;;;;;4939640;29;20064;-81
2023/12/29 00:47:10;;;;;;;10.32;1.80;;;9.70;99.90;;;;;;4927562;29;20036;-81
2023/12/29 00:49:40;;;;;;;9.73;1.80;;;9.90;99.90;;;;;;4966162;29;20052;-81
2023/12/29 00:52:07;;;;;;;8.95;1.85;;;9.70;99.90;;;;;;4952188;29;20138;-81
2023/12/29 00:54:33;;;;;;;7.20;1.50;;;9.70;99.90;;;;;;4936695;29;20051;-81
2023/12/29 00:57:00;;;;;;;12.07;1.90;;;10.30;99.90;;;;;;4936557;29;20040;-81
2023/12/29 00:59:27;;;;;;;11.25;1.83;;;9.70;99.90;;;;;;4941316;29;20091;-81
2023/12/29 01:01:53;;;;;;;13.55;2.03;;;9.70;99.90;;;;;;4938907;29;20494;-81
2023/12/29 01:04:20;;;;;;;11.15;1.70;;;9.70;99.90;;;;;;4948481;29;20075;-81
2023/12/29 01:06:46;;;;;;;10.45;2.38;;;9.70;99.90;;;;;;4952363;29;20071;-81
2023/12/29 01:09:13;;;;;;;9.60;1.88;;;9.80;99.90;;;;;;4958204;29;20055;-81
2023/12/29 01:11:40;;;;;;;12.32;1.80;;;9.80;99.90;;;;;;4953141;29;20046;-81
2023/12/29 01:14:06;;;;;;;11.80;1.95;;;10.10;99.90;;;;;;4943194;29;20071;-81
2023/12/29 01:16:33;;;;;;;6.32;1.60;;;9.60;99.90;;;;;;4955639;29;20042;-81
2023/12/29 01:19:00;;;;;;;9.70;1.88;;;9.60;99.90;;;;;;4971116;29;20044;-81
2023/12/29 01:21:26;;;;;;;11.63;1.90;;;9.60;99.90;;;;;;4950709;29;20039;-81
2023/12/29 01:23:53;;;;;;;7.50;1.67;;;9.40;99.90;;;;;;4955735;29;20118;-81
2023/12/29 01:26:19;;;;;;;7.50;1.73;;;9.40;99.90;;;;;;4955272;29;20039;-81
2023/12/29 01:28:46;;;;;;;9.15;1.70;;;9.30;99.90;;;;;;4958292;29;20044;-81
2023/12/29 01:31:13;;;;;;;9.43;1.50;;;9.30;99.90;;;;;;4961727;29;20040;-81
2023/12/29 01:33:40;;;;;;;13.25;1.95;;;9.30;99.90;;;;;;4940289;29;20050;-82
2023/12/29 01:36:06;;;;;;;8.43;1.65;;;9.30;99.90;;;;;;4955504;29;20040;-81
2023/12/29 01:38:33;;;;;;;8.00;1.73;;;9.20;99.90;;;;;;4951127;29;20047;-81
2023/12/29 01:41:00;;;;;;;14.38;2.35;;;9.40;99.90;;;;;;4947380;29;20494;-81
2023/12/29 01:43:26;;;;;;;12.38;1.98;;;9.30;99.90;;;;;;4955137;29;20488;-81
2023/12/29 01:45:53;;;;;;;11.07;2.00;;;9.10;99.90;;;;;;4943941;29;20043;-81
2023/12/29 01:48:21;;;;;;;12.65;2.40;;;9.10;99.90;;;;;;4937735;29;20127;-81
2023/12/29 01:50:48;;;;;;;10.32;2.17;;;9.20;99.90;;;;;;4962805;29;20068;-81
2023/12/29 01:53:14;;;;;;;13.40;2.25;;;9.20;99.90;;;;;;4944318;29;20068;-81
2023/12/29 01:55:42;;;;;;;10.18;1.77;;;9.20;99.90;;;;;;4953468;29;20485;-81
2023/12/29 01:58:09;;;;;;;5.60;1.88;;;9.50;99.90;;;;;;4954884;29;20130;-81
2023/12/29 02:00:35;;;;;;;10.48;2.10;;;9.30;99.90;;;;;;4942176;29;20126;-82
2023/12/29 02:03:02;;;;;;;8.48;1.50;;;9.20;99.90;;;;;;4952618;29;20040;-81
2023/12/29 02:05:30;;;;;;;8.10;1.60;;;9.10;99.90;;;;;;4952761;29;20044;-81
2023/12/29 02:07:58;;;;;;;6.88;1.33;;;9.00;99.90;;;;;;4953005;29;20103;-82
2023/12/29 02:10:25;;;;;;;5.00;1.33;;;8.80;99.90;;;;;;4935499;29;20048;-81
2023/12/29 02:12:57;;;;;;;5.07;1.02;;;8.60;99.90;;;;;;4943267;29;20448;-81
2023/12/29 02:15:23;;;;;;;3.35;0.98;;;8.50;99.90;;;;;;4969476;29;20550;-81
2023/12/29 02:18:02;;;;;;;3.30;0.93;;;8.80;99.90;;;;;;4942594;29;20123;-81
2023/12/29 02:20:29;;;;;;;8.43;1.27;;;8.30;99.90;;;;;;4928272;29;20055;-81
2023/12/29 02:22:56;;;;;;;4.35;0.82;;;7.60;99.90;;;;;;4932291;29;20077;-81
2023/12/29 02:25:23;;;;;;;6.47;1.45;;;7.70;99.90;;;;;;4950558;29;20520;-81
2023/12/29 02:28:25;;;;;;;2.50;0.80;;;7.60;99.90;;;;;;4945854;29;20122;-81
2023/12/29 02:31:16;;;;;;;5.53;0.93;;;6.40;99.90;;;;;;4938687;29;20047;-82
2023/12/29 02:33:44;;;;;;;5.40;1.05;;;6.50;99.90;;;;;;4939557;29;20044;-82
2023/12/29 02:36:13;;;;;;;8.75;1.45;;;6.20;99.90;;;;;;4934112;29;20070;-82
2023/12/29 02:38:40;;;;;;;8.35;1.20;;;6.50;99.90;;;;;;4938043;29;20040;-82
2023/12/29 02:41:07;;;;;;;6.63;1.27;;;6.30;99.90;;;;;;4970096;29;20126;-82
2023/12/29 02:43:34;;;;;;;11.07;1.55;;;7.40;99.90;;;;;;4950401;29;20118;-82
2023/12/29 02:46:00;;;;;;;5.32;1.17;;;6.30;99.90;;;;;;4953914;29;20035;-82
2023/12/29 02:48:27;;;;;;;5.50;1.27;;;6.40;99.90;;;;;;4952514;29;20040;-82
2023/12/29 02:50:54;;;;;;;7.10;1.40;;;6.40;99.90;;;;;;4927217;29;20051;-82
2023/12/29 02:53:20;;;;;;;9.30;1.67;;;6.50;99.90;;;;;;4949629;29;20063;-81
2023/12/29 02:55:47;;;;;;;15.32;1.73;;;6.60;99.90;;;;;;4943609;29;20086;-81
2023/12/29 02:58:13;;;;;;;8.57;1.65;;;6.60;99.90;;;;;;4947916;29;20497;-82
2023/12/29 03:00:40;;;;;;;8.90;1.50;;;6.80;99.90;;;;;;4958175;29;20036;-82
2023/12/29 03:03:07;;;;;;;9.13;1.48;;;6.90;99.90;;;;;;4951947;29;20044;-82
2023/12/29 03:05:33;;;;;;;15.43;1.50;;;7.60;99.90;;;;;;4938017;29;20047;-82
2023/12/29 03:08:00;;;;;;;8.98;1.52;;;7.60;99.90;;;;;;4939703;29;20032;-82
2023/12/29 03:10:26;;;;;;;9.70;1.80;;;7.10;99.90;;;;;;4921354;29;20102;-82
2023/12/29 03:12:53;;;;;;;12.45;1.80;;;7.80;99.90;;;;;;4932265;29;20032;-82
2023/12/29 03:15:20;;;;;;;12.98;2.10;;;7.20;99.90;;;;;;4919230;29;20076;-82
2023/12/29 03:17:46;;;;;;;16.52;2.05;;;7.90;99.90;;;;;;4965547;29;20479;-82
2023/12/29 03:20:13;;;;;;;10.20;1.75;;;7.80;99.90;;;;;;4938207;29;20048;-82
2023/12/29 03:22:40;;;;;;;14.65;2.10;;;7.60;99.90;;;;;;4931460;29;20044;-82
2023/12/29 03:25:07;;;;;;;9.82;2.65;;;7.70;99.90;;;;;;4962349;29;20040;-82
2023/12/29 03:27:33;;;;;;;11.93;2.38;;;7.70;99.90;;;;;;4937409;29;20044;-82
2023/12/29 03:30:00;;;;;;;13.20;2.22;;;7.80;99.90;;;;;;4937468;29;20036;-82
2023/12/29 03:32:27;;;;;;;13.23;2.60;;;7.90;99.90;;;;;;4937465;29;20390;-82
2023/12/29 03:34:53;;;;;;;10.30;2.40;;;8.00;99.90;;;;;;4937875;29;20075;-82
2023/12/29 03:37:20;;;;;;;17.88;2.42;;;8.10;99.90;;;;;;4947418;29;20042;-82
2023/12/29 03:39:47;;;;;;;12.80;2.70;;;8.10;99.90;;;;;;4966721;29;20043;-82
2023/12/29 03:42:13;;;;;;;15.73;2.45;;;8.20;99.90;;;;;;4951161;29;20511;-82
2023/12/29 03:44:40;;;;;;;18.13;2.92;;;8.30;99.90;;;;;;4942947;29;20054;-82
2023/12/29 03:47:07;;;;;;;18.83;2.47;;;8.90;99.90;;;;;;4968217;29;20035;-82
2023/12/29 03:49:34;;;;;;;18.95;2.92;;;8.40;99.90;;;;;;4958169;29;20122;-82
2023/12/29 03:52:01;;;;;;;14.40;3.08;;;8.40;99.90;;;;;;4965045;29;20123;-81
2023/12/29 03:54:27;;;;;;;18.70;3.05;;;8.80;99.90;;;;;;4936668;29;20036;-81
2023/12/29 03:56:54;;;;;;;13.45;2.95;;;8.70;99.90;;;;;;4944924;29;20087;-82
2023/12/29 03:59:20;;;;;;;14.63;3.17;;;9.20;99.90;;;;;;4942150;29;20102;-82
2023/12/29 04:01:47;;;;;;;19.15;4.30;;;8.70;99.90;;;;;;4929590;29;20548;-82
2023/12/29 04:04:14;;;;;;;12.65;2.53;;;8.80;99.90;;;;;;4941333;29;20039;-82
2023/12/29 04:06:41;;;;;;;17.05;3.25;;;8.80;99.90;;;;;;4948843;29;20099;-81
2023/12/29 04:09:08;;;;;;;20.00;3.03;;;8.80;99.90;;;;;;4955199;29;20421;-81
2023/12/29 04:11:34;;;;;;;16.65;3.05;;;9.60;99.90;;;;;;4952661;29;20035;-81
2023/12/29 04:14:01;;;;;;;22.95;2.67;;;8.80;99.90;;;;;;4968717;29;20046;-82
2023/12/29 04:16:28;;;;;;;16.33;2.92;;;8.90;99.90;;;;;;4952308;29;20039;-82
2023/12/29 04:18:54;;;;;;;18.67;2.65;;;8.80;99.90;;;;;;4952552;29;20123;-82
2023/12/29 04:21:21;;;;;;;24.15;3.25;;;8.70;99.90;;;;;;4968602;29;20051;-81
2023/12/29 04:23:48;;;;;;;25.67;3.63;;;9.10;99.90;;;;;;4952688;29;20070;-81
2023/12/29 04:26:14;;;;;;;16.25;2.92;;;8.80;99.90;;;;;;4952336;29;20064;-82
2023/12/29 04:28:42;;;;;;;14.40;2.97;;;8.90;99.90;;;;;;4952381;29;20896;-82
2023/12/29 04:31:09;;;;;;;23.02;4.68;;;8.90;99.90;;;;;;4952882;29;20115;-82
2023/12/29 04:33:35;;;;;;;18.70;2.67;;;9.00;99.90;;;;;;4952549;29;20152;-82
2023/12/29 04:36:02;;;;;;;18.95;3.05;;;8.90;99.90;;;;;;4952845;29;20040;-82
2023/12/29 04:38:29;;;;;;;20.77;2.97;;;8.90;99.90;;;;;;4952351;29;20060;-81
2023/12/29 04:40:55;;;;;;;18.73;2.85;;;8.90;99.90;;;;;;4952860;29;20040;-81
2023/12/29 04:43:22;;;;;;;20.48;3.95;;;8.90;99.90;;;;;;4952114;29;20511;-82
2023/12/29 04:45:49;;;;;;;21.08;3.17;;;8.90;99.90;;;;;;4970657;29;20508;-81
2023/12/29 04:48:15;;;;;;;19.70;3.20;;;9.10;99.90;;;;;;4954141;29;20044;-81
2023/12/29 04:50:43;;;;;;;19.95;3.17;;;9.00;99.90;;;;;;4971912;29;20067;-82
2023/12/29 04:53:09;;;;;;;22.60;4.65;;;8.90;99.90;;;;;;4971826;29;20417;-81
2023/12/29 04:55:36;;;;;;;12.77;2.50;;;9.30;99.90;;;;;;4956021;29;20036;-82
2023/12/29 04:58:03;;;;;;;17.45;3.80;;;9.30;99.90;;;;;;4955883;29;20039;-81
2023/12/29 05:00:29;;;;;;;26.50;3.80;;;8.90;99.90;;;;;;4955975;29;20039;-82
2023/12/29 05:02:56;;;;;;;15.43;2.92;;;9.00;99.90;;;;;;4959526;29;20493;-81
2023/12/29 05:05:22;;;;;;;22.52;2.83;;;8.90;99.90;;;;;;4955944;29;20044;-82
2023/12/29 05:07:49;;;;;;;14.88;2.63;;;8.80;99.90;;;;;;4955621;29;20075;-82
2023/12/29 05:10:16;;;;;;;19.60;2.97;;;8.80;99.90;;;;;;4966656;29;20054;-82
2023/12/29 05:12:42;;;;;;;18.83;3.10;;;9.50;99.90;;;;;;4957645;29;20413;-82
2023/12/29 05:15:09;;;;;;;14.93;2.63;;;8.80;99.90;;;;;;4955959;29;20075;-82
2023/12/29 05:17:36;;;;;;;20.33;3.35;;;8.80;99.90;;;;;;4955565;29;20047;-81
2023/12/29 05:20:03;;;;;;;21.73;4.28;;;8.80;99.90;;;;;;4955546;29;20039;-81
2023/12/29 05:22:30;;;;;;;18.27;2.80;;;8.80;99.90;;;;;;4955785;29;20052;-81
2023/12/29 05:24:59;;;;;;;14.63;2.38;;;8.80;99.90;;;;;;4952230;29;20052;-81
2023/12/29 05:27:27;;;;;;;17.92;2.85;;;9.20;99.90;;;;;;4960743;29;20043;-81
2023/12/29 05:29:53;;;;;;;14.02;2.50;;;8.80;99.90;;;;;;4961869;29;20048;-81
2023/12/29 05:32:20;;;;;;;15.07;2.97;;;8.80;99.90;;;;;;4955420;29;20412;-81
2023/12/29 05:34:46;;;;;;;21.20;3.38;;;8.90;99.90;;;;;;4953146;29;20414;-81
2023/12/29 05:37:13;;;;;;;17.50;3.13;;;8.90;99.90;;;;;;4942454;29;20496;-82
2023/12/29 05:39:43;;;;;;;21.58;3.13;;;8.90;99.90;;;;;;4955106;29;20074;-81
2023/12/29 05:42:10;;;;;;;33.50;3.50;;;9.00;99.90;;;;;;4947125;29;20540;-82
2023/12/29 05:44:37;;;;;;;18.48;2.88;;;9.00;99.90;;;;;;4954871;29;20131;-81
2023/12/29 05:47:07;;;;;;;15.10;2.90;;;8.90;99.90;;;;;;4955234;29;20043;-82
2023/12/29 05:49:39;;;;;;;17.75;2.78;;;8.90;99.90;;;;;;4954934;29;20059;-82
2023/12/29 05:52:06;;;;;;;24.52;2.97;;;9.00;99.90;;;;;;4955213;29;20040;-81
2023/12/29 05:54:33;;;;;;;15.68;3.25;;;8.90;99.90;;;;;;4970567;29;20043;-81
2023/12/29 05:57:00;;;;;;;21.33;3.00;;;9.00;99.90;;;;;;4953902;29;20040;-82
2023/12/29 05:59:27;;;;;;;22.35;2.80;;;9.00;99.90;;;;;;4954996;29;20042;-81
2023/12/29 06:01:54;;;;;;;17.02;2.47;;;9.00;99.90;;;;;;4954887;29;20043;-81
2023/12/29 06:04:21;;;;;;;15.93;2.92;;;9.00;99.90;;;;;;4970725;29;20036;-82
2023/12/29 06:06:47;;;;;;;18.33;2.92;;;9.10;99.90;;;;;;4954836;29;20047;-81
2023/12/29 06:09:14;;;;;;;19.85;3.10;;;9.00;99.90;;;;;;4970297;29;20063;-82
2023/12/29 06:11:41;;;;;;;17.15;3.13;;;9.00;99.90;;;;;;4954813;29;20134;-81
2023/12/29 06:14:07;;;;;;;17.13;2.53;;;9.00;99.90;;;;;;4954637;29;20064;-82
2023/12/29 06:16:34;;;;;;;11.65;2.35;;;9.00;99.90;;;;;;4954831;29;20087;-81
2023/12/29 06:19:01;;;;;;;21.40;3.08;;;9.00;99.90;;;;;;4954647;29;20039;-82
2023/12/29 06:21:27;;;;;;;15.60;2.78;;;9.00;99.90;;;;;;4954483;29;20040;-81
2023/12/29 06:23:54;;;;;;;22.70;3.40;;;9.00;99.90;;;;;;4970451;29;20518;-81
2023/12/29 06:26:22;;;;;;;16.98;2.70;;;9.00;99.90;;;;;;4954658;29;20051;-81
2023/12/29 06:28:49;;;;;;;13.98;2.47;;;9.00;99.90;;;;;;4954200;29;20062;-81
2023/12/29 06:31:17;;;;;;;22.10;2.38;;;9.00;99.90;;;;;;4970235;29;20047;-82
2023/12/29 06:33:44;;;;;;;18.80;3.35;;;9.00;99.90;;;;;;4954034;29;20047;-82
2023/12/29 06:36:11;;;;;;;11.70;2.20;;;9.10;99.90;;;;;;4970202;29;20044;-82
2023/12/29 06:38:38;;;;;;;15.70;2.30;;;9.00;99.90;;;;;;4950043;29;20051;-82
2023/12/29 06:41:05;;;;;;;17.35;3.53;;;9.00;99.90;;;;;;4961836;29;20115;-81
2023/12/29 06:43:31;;;;;;;18.42;2.65;;;9.00;99.90;;;;;;4954221;29;20099;-81
2023/12/29 06:45:58;;;;;;;18.08;2.97;;;8.90;99.90;;;;;;4943130;29;20058;-82
2023/12/29 06:48:25;;;;;;;12.27;2.25;;;8.80;99.90;;;;;;4952470;29;20044;-81
2023/12/29 06:50:51;;;;;;;16.17;2.67;;;8.80;99.90;;;;;;4980162;29;20044;-81
2023/12/29 06:53:18;;;;;;;18.58;2.30;;;8.80;99.90;;;;;;4961825;29;20107;-82
2023/12/29 06:55:45;;;;;;;16.48;2.35;;;8.80;99.90;;;;;;4957618;29;20063;-81
2023/12/29 06:58:11;;;;;;;13.07;2.47;;;8.70;99.90;;;;;;4958835;29;20404;-81
2023/12/29 07:00:38;;;;;;;18.13;2.95;;;8.70;99.90;;;;;;4962141;29;20051;-81
2023/12/29 07:03:05;;;;;;;20.52;2.67;;;8.70;99.90;;;;;;4949189;29;20091;-81
2023/12/29 07:05:32;;;;;;;22.17;3.08;;;8.60;99.90;;;;;;4945139;29;20082;-81
2023/12/29 07:07:58;;;;;;;18.38;2.85;;;8.60;99.90;;;;;;4949651;29;20039;-81
2023/12/29 07:10:25;;;;;;;21.02;3.15;;;8.60;99.90;;;;;;4953522;29;20134;-81
2023/12/29 07:12:52;;;;;;;14.45;3.05;;;8.60;99.90;;;;;;4951661;29;20054;-81
2023/12/29 07:15:18;;;;;;;19.20;2.50;;;8.60;99.90;;;;;;4952952;29;20119;-81
2023/12/29 07:17:45;;;;;;;19.35;3.03;;;8.60;99.90;;;;;;4953783;29;20055;-81
2023/12/29 07:20:12;;;;;;;21.83;2.95;;;8.60;99.90;;;;;;4969328;29;20039;-81
2023/12/29 07:22:39;;;;;;;24.55;3.10;;;8.60;99.90;;;;;;4953278;29;20055;-81
2023/12/29 07:25:06;;;;;;;29.75;3.10;;;8.60;99.90;;;;;;4953443;29;20039;-81
2023/12/29 07:27:32;;;;;;;21.52;2.90;;;8.60;99.90;;;;;;4941529;29;20112;-81
2023/12/29 07:29:59;;;;;;;23.08;3.35;;;8.60;99.90;;;;;;4953512;29;20139;-82
2023/12/29 07:32:26;;;;;;;16.45;2.50;;;8.60;99.90;;;;;;4964403;29;20506;-81
2023/12/29 07:34:52;;;;;;;16.98;2.60;;;8.70;99.90;;;;;;4942080;29;20044;-81
2023/12/29 07:37:19;;;;;;;22.88;3.15;;;8.70;99.90;;;;;;4960041;29;20429;-81
2023/12/29 07:39:47;;;;;;;22.65;3.08;;;8.70;99.90;;;;;;4952970;29;20425;-81
2023/12/29 07:42:16;;;;;;;20.13;3.92;;;8.70;99.90;;;;;;4949720;29;20047;-81
2023/12/29 07:44:43;;;;;;;19.67;3.13;;;8.70;99.90;;;;;;4968428;29;20091;-81
2023/12/29 07:47:11;;;;;;;25.88;4.10;;;8.70;99.90;;;;;;4947563;29;20048;-81
2023/12/29 07:49:44;;;;;;;23.67;4.18;;;8.70;99.90;;;;;;4955454;29;20486;-81
2023/12/29 07:52:10;;;;;;;18.75;2.72;;;8.60;99.90;;;;;;4945983;29;20031;-82
2023/12/29 07:54:37;;;;;;;26.30;3.63;;;8.60;99.90;;;;;;4948397;29;20482;-81
2023/12/29 07:57:04;;;;;;;21.00;2.67;;;8.60;99.90;;;;;;4950681;29;20044;-82
2023/12/29 07:59:31;;;;;;;21.98;3.67;;;8.70;99.90;;;;;;4951771;29;20103;-82
2023/12/29 08:01:57;;;;;;;20.25;2.75;;;8.50;99.90;;;;;;4946947;29;20501;-81
2023/12/29 08:04:24;;;;;;;25.25;2.92;;;8.50;99.90;;;;;;4951867;29;20132;-82
2023/12/29 08:06:51;;;;;;;20.45;2.95;;;8.50;99.90;;;;;;4952710;29;20126;-81
2023/12/29 08:09:17;;;;;;;21.77;3.30;;;8.60;99.90;;;;;;4952167;29;20127;-81
2023/12/29 08:11:44;;;;;;;17.27;3.70;;;8.40;99.90;;;;;;4943757;29;20044;-81
2023/12/29 08:14:12;;;;;;;22.25;3.10;;;8.60;99.90;;;;;;4952689;29;20048;-82
2023/12/29 08:16:42;;;;;;;20.58;2.97;;;8.50;99.90;;;;;;4952983;29;20044;-81
2023/12/29 08:19:09;;;;;;;26.75;3.67;;;8.50;99.90;;;;;;4943270;29;20047;-81
2023/12/29 08:21:36;;;;;;;20.85;3.33;;;9.40;99.90;;;;;;4939725;29;20048;-81
2023/12/29 08:24:03;;;;;;;23.63;3.65;;;8.70;99.90;;;;;;4952556;29;20460;-81
2023/12/29 08:26:30;;;;;;;23.05;3.40;;;8.60;99.90;;;;;;4968190;29;20047;-81
2023/12/29 08:28:56;;;;;;;18.08;3.10;;;9.00;99.90;;;;;;4952485;29;20048;-81
2023/12/29 08:31:23;;;;;;;25.42;3.80;;;8.70;99.90;;;;;;4952305;29;20045;-81
2023/12/29 08:33:50;;;;;;;24.30;5.03;;;8.60;99.90;;;;;;4946381;29;20040;-81
2023/12/29 08:36:21;;;;;;;23.75;4.25;;;8.60;99.90;;;;;;4940086;29;20031;-81
2023/12/29 08:38:47;;;;;;;21.45;3.33;;;8.70;99.90;;;;;;4951732;29;20039;-81
2023/12/29 08:41:14;;;;;;;21.25;3.72;;;8.60;99.90;;;;;;4952090;29;20040;-81
2023/12/29 08:43:41;;;;;;;21.45;3.45;;;9.30;99.90;;;;;;4968174;29;20043;-80
2023/12/29 08:46:08;;;;;;;26.08;3.63;;;8.70;99.90;;;;;;4952301;29;20044;-80
2023/12/29 08:48:34;;;;;;;19.35;3.03;;;8.70;99.90;;;;;;4950502;29;20046;-81
2023/12/29 08:51:01;;;;;;;21.48;3.53;;;9.00;99.90;;;;;;4952456;29;20043;-80
2023/12/29 08:53:31;;;;;;;20.65;2.95;;;8.80;99.90;;;;;;4948039;29;20066;-81
2023/12/29 08:55:57;;;;;;;18.42;2.88;;;8.90;99.90;;;;;;4942857;29;20238;-81
2023/12/29 08:58:24;;;;;;;22.90;3.00;;;9.30;99.90;;;;;;4952329;29;20046;-81
2023/12/29 09:00:50;;;;;;;26.60;3.95;;;8.90;99.90;;;;;;4949553;29;20047;-81
2023/12/29 09:03:17;;;;;;;28.25;3.95;;;8.80;99.90;;;;;;4963011;29;20036;-81
2023/12/29 09:05:44;;;;;;;17.08;2.65;;;8.80;99.90;;;;;;4951892;29;20102;-81
2023/12/29 09:08:10;;;;;;;17.58;2.88;;;8.80;99.90;;;;;;4962554;29;20040;-81
2023/12/29 09:10:38;;;;;;;27.83;3.30;;;8.80;99.90;;;;;;4945616;29;20055;-82
2023/12/29 09:13:05;;;;;;;22.95;3.45;;;8.90;99.90;;;;;;4946775;29;20064;-81
2023/12/29 09:15:32;;;;;;;18.90;2.63;;;8.90;99.90;;;;;;4951489;29;20035;-81
2023/12/29 09:17:59;;;;;;;22.02;3.22;;;9.40;99.90;;;;;;4946868;29;20091;-81
2023/12/29 09:20:25;;;;;;;12.15;2.70;;;8.90;99.90;;;;;;4957637;29;20447;-81
2023/12/29 09:22:53;;;;;;;16.00;2.50;;;8.90;99.90;;;;;;4951306;29;20036;-81
2023/12/29 09:25:20;;;;;;;22.10;3.88;;;8.90;99.90;;;;;;4939352;29;20032;-81
2023/12/29 09:27:49;;;;;;;13.60;2.63;;;8.90;99.90;;;;;;4967381;29;20138;-81
2023/12/29 09:30:16;;;;;;;18.50;3.17;;;8.90;99.90;;;;;;4964689;29;20044;-81
2023/12/29 09:32:42;;;;;;;12.10;2.40;;;8.90;99.90;;;;;;4954388;29;20039;-81
2023/12/29 09:35:09;;;;;;;17.60;3.10;;;8.90;99.90;;;;;;4954218;29;20155;-81
2023/12/29 09:37:35;;;;;;;18.73;2.95;;;9.20;99.90;;;;;;4945469;29;20047;-81
2023/12/29 09:40:02;;;;;;;18.52;2.50;;;8.90;99.90;;;;;;4948863;29;20040;-80
2023/12/29 09:42:29;;;;;;;19.05;3.08;;;9.00;99.90;;;;;;4954201;29;20489;-81
2023/12/29 09:44:56;;;;;;;15.35;2.85;;;9.00;99.90;;;;;;4946633;29;20137;-81
2023/12/29 09:47:24;;;;;;;14.57;2.42;;;9.40;99.90;;;;;;4944367;29;20079;-81
2023/12/29 09:49:54;;;;;;;14.13;2.40;;;9.00;99.90;;;;;;4947123;29;20035;-81
2023/12/29 09:52:22;;;;;;;18.02;3.58;;;9.30;99.90;;;;;;4939511;29;20450;-81
2023/12/29 09:54:52;;;;;;;24.10;2.65;;;9.10;99.90;;;;;;4951557;29;20050;-81
2023/12/29 09:57:19;;;;;;;24.58;3.75;;;9.10;99.90;;;;;;4944709;29;20039;-81
2023/12/29 09:59:51;;;;;;;17.42;2.55;;;9.10;99.90;;;;;;4955005;29;20043;-80
2023/12/29 10:02:19;;;;;;;21.65;2.75;;;9.40;99.90;;;;;;4954688;29;20035;-80
2023/12/29 10:04:46;;;;;;;22.33;3.15;;;9.10;99.90;;;;;;4952581;29;20481;-80
2023/12/29 10:07:20;;;;;;;17.50;3.00;;;9.40;99.90;;;;;;4961319;29;20099;-80
2023/12/29 10:09:51;;;;;;;16.67;2.40;;;9.20;99.90;;;;;;4951452;29;20058;-79
2023/12/29 10:12:19;;;;;;;15.73;2.55;;;9.40;99.90;;;;;;4944486;29;20047;-80
2023/12/29 10:14:48;;;;;;;15.88;2.45;;;9.60;99.90;;;;;;4952397;29;20437;-80
2023/12/29 10:17:56;;;;;;;16.75;2.60;;;9.30;99.90;;;;;;4954526;29;20043;-80
2023/12/29 10:20:49;;;;;;;14.90;2.78;;;9.20;99.90;;;;;;4952956;29;20051;-80
2023/12/29 10:23:57;;;;;;;19.90;2.90;;;9.20;99.90;;;;;;4952247;29;20043;-80
2023/12/29 10:26:25;;;;;;;17.45;2.35;;;9.20;99.90;;;;;;4938465;29;20279;-79
2023/12/29 10:28:52;;;;;;;16.60;2.65;;;9.20;99.90;;;;;;4954236;29;20520;-80
2023/12/29 10:31:19;;;;;;;16.55;2.75;;;9.40;99.90;;;;;;4957519;29;20405;-80
2023/12/29 10:33:51;;;;;;;15.27;2.95;;;9.20;99.90;;;;;;4954556;29;20035;-80
2023/12/29 10:36:18;;;;;;;25.02;3.13;;;9.20;99.90;;;;;;4954137;29;20510;-80
2023/12/29 10:38:44;;;;;;;19.05;3.63;;;9.30;99.90;;;;;;4954315;29;20059;-80
2023/12/29 10:41:18;;;;;;;17.77;2.95;;;9.30;99.90;;;;;;4962397;29;20159;-80
2023/12/29 10:43:52;;;;;;;17.77;3.05;;;9.30;99.90;;;;;;4970134;29;20109;-80
2023/12/29 10:46:20;;;;;;;18.30;3.65;;;9.40;99.90;;;;;;4946377;29;20072;-80
2023/12/29 10:48:48;;;;;;;16.58;3.00;;;9.30;99.90;;;;;;4942852;29;20391;-81
2023/12/29 10:51:14;;;;;;;15.00;2.63;;;9.30;99.90;;;;;;4958884;29;20568;-79
2023/12/29 10:53:42;;;;;;;13.60;2.80;;;9.40;99.90;;;;;;4953021;29;20047;-80
2023/12/29 10:56:22;;;;;;;16.52;2.30;;;9.50;99.90;;;;;;4951163;29;20048;-80
2023/12/29 10:59:05;;;;;;;12.52;2.22;;;9.40;99.90;;;;;;4947763;29;20144;-79
2023/12/29 11:01:36;;;;;;;18.40;3.08;;;9.40;99.90;;;;;;4947726;29;20039;-79
2023/12/29 11:04:06;;;;;;;21.00;2.50;;;9.40;99.90;;;;;;4968562;29;20044;-80
2023/12/29 11:06:46;;;;;;;13.32;2.65;;;9.40;99.90;;;;;;4937441;29;20040;-79
2023/12/29 11:09:13;;;;;;;20.13;2.70;;;9.50;99.90;;;;;;4962788;29;20060;-80
2023/12/29 11:11:41;;;;;;;11.07;2.17;;;9.40;99.90;;;;;;4960377;29;20063;-79
2023/12/29 11:14:11;;;;;;;11.25;2.38;;;9.60;99.90;;;;;;4961449;29;20044;-80
2023/12/29 11:16:39;;;;;;;16.17;1.92;;;9.50;99.90;;;;;;4951919;29;20040;-80
2023/12/29 11:19:09;;;;;;;10.27;1.80;;;9.80;99.90;;;;;;4945836;29;20051;-79
2023/12/29 11:21:37;;;;;;;13.45;2.03;;;9.20;99.90;;;;;;4967227;29;20139;-79
2023/12/29 11:24:04;;;;;;;15.70;2.30;;;9.40;99.90;;;;;;4969183;29;20643;-80
2023/12/29 11:26:31;;;;;;;15.10;2.20;;;8.90;99.90;;;;;;4972887;29;20159;-80
2023/12/29 11:28:58;;;;;;;12.85;1.85;;;8.90;99.90;;;;;;4952528;29;20078;-80
2023/12/29 11:31:25;;;;;;;12.20;2.33;;;9.60;99.90;;;;;;4951030;29;20043;-80
2023/12/29 11:34:05;;;;;;;16.65;2.08;;;9.50;99.90;;;;;;4958193;29;20044;-80
2023/12/29 11:36:41;;;;;;;16.73;2.17;;;9.00;99.90;;;;;;4946874;29;20044;-80
2023/12/29 11:39:24;;;;;;;9.48;1.85;;;8.90;99.90;;;;;;4952029;29;20072;-80
2023/12/29 11:42:06;;;;;;;11.43;2.13;;;9.00;99.90;;;;;;4968805;29;20066;-80
2023/12/29 11:44:33;;;;;;;13.25;2.10;;;9.20;99.90;;;;;;4945926;29;20043;-80
2023/12/29 11:47:00;;;;;;;15.48;2.20;;;9.30;99.90;;;;;;4953216;29;20048;-80
2023/12/29 11:49:27;;;;;;;14.52;2.10;;;9.30;99.90;;;;;;4956566;29;20119;-80
2023/12/29 11:51:54;;;;;;;16.40;1.95;;;9.60;99.90;;;;;;4958855;29;20198;-80
2023/12/29 11:54:27;;;;;;;15.25;2.55;;;9.40;99.90;;;;;;4946051;29;20122;-79
2023/12/29 11:56:54;;;;;;;14.48;2.28;;;9.50;99.90;;;;;;4964472;29;20095;-80
2023/12/29 11:59:23;;;;;;;11.52;1.85;;;9.50;99.90;;;;;;4960527;29;20054;-80
2023/12/29 12:01:55;;;;;;;9.45;1.50;;;9.80;99.90;;;;;;4940329;29;20573;-80
2023/12/29 12:04:40;;;;;;;10.55;1.55;;;9.60;99.90;;;;;;4939479;29;20405;-80
2023/12/29 12:07:09;;;;;;;14.88;1.80;;;9.60;99.90;;;;;;4933931;29;20466;-80
2023/12/29 12:09:36;;;;;;;14.55;1.63;;;9.60;99.90;;;;;;4966140;29;20094;-80
2023/12/29 12:12:05;;;;;;;10.85;1.83;;;9.60;99.90;;;;;;4949994;29;20075;-79
2023/12/29 12:14:55;;;;;;;13.45;1.67;;;9.50;99.90;;;;;;4952480;29;20114;-80
2023/12/29 12:17:34;;;;;;;9.07;1.60;;;9.60;99.90;;;;;;4953562;29;20052;-80
2023/12/29 12:20:06;;;;;;;12.63;2.38;;;9.40;99.90;;;;;;4961697;29;20500;-80
2023/12/29 12:22:32;;;;;;;13.00;1.77;;;9.40;99.90;;;;;;4955496;29;20087;-80
2023/12/29 12:25:00;;;;;;;12.63;1.95;;;9.30;99.90;;;;;;4942793;29;20047;-80
2023/12/29 12:27:27;;;;;;;12.82;1.85;;;9.30;99.90;;;;;;4961925;29;20051;-80
2023/12/29 12:29:59;;;;;;;8.95;1.38;;;9.50;99.90;;;;;;4959579;29;20559;-80
2023/12/29 12:32:27;;;;;;;13.30;2.28;;;9.20;99.90;;;;;;4952504;29;20043;-80
2023/12/29 12:34:54;;;;;;;10.73;1.60;;;9.20;99.90;;;;;;4949954;29;20897;-80
2023/12/29 12:37:29;;;;;;;13.48;2.20;;;9.10;99.90;;;;;;4942849;29;20046;-80
2023/12/29 12:39:56;;;;;;;13.50;2.05;;;9.10;99.90;;;;;;4952017;29;20126;-80
2023/12/29 12:42:23;;;;;;;10.82;2.05;;;9.10;99.90;;;;;;4946002;29;20119;-80
2023/12/29 12:44:56;;;;;;;13.32;1.85;;;9.30;99.90;;;;;;4947908;29;20585;-79
2023/12/29 12:47:54;;;;;;;12.85;1.88;;;9.00;99.90;;;;;;4947718;29;20043;-80
2023/12/29 12:50:20;;;;;;;11.15;1.70;;;9.00;99.90;;;;;;4938993;29;20047;-80
2023/12/29 12:52:47;;;;;;;9.85;1.50;;;9.00;99.90;;;;;;4951632;29;20047;-80